Littleton, West Virginia
Current Conditions -  °F | °C
As of 5:53 PM on Tuesday 27 Jan 2015 (Local Time) from KCKB Reporting Station
Light Snow Light Snow  
Wind Chill: 13°   Ceiling: 3000
Heat Index: 22°   Visibility: 2mi
Dew Point: 17°   Wind: 7mph
Humidity: 82%   Direction: 290°WNW
Pressure: 30.04"   Gusts: NA
Location:  39.7°N, 80.52°W
Report Text: KCKB 272253Z 29006KT 2SM -SN FEW014 BKN030 OVC040 M06/M08 A3004 RMK AO2 SLP184 P0000 T10561083
Loading
Personal Weather Stations






























Interactive Weather Map New forecast layout! Learn more

10-Day Weather Forecast

Advertisements
Track Severe Weather on mobile